sensor_id;sensor_type;location;lat;lon;timestamp;P1;P2;P0
48887;PMS5003;42598;53.802;-1.632;2022-12-18T00:01:19;36;35;
48887;PMS5003;42598;53.802;-1.632;2022-12-18T00:03:48;30;29;
48887;PMS5003;42598;53.802;-1.632;2022-12-18T00:06:16;36;35;
48887;PMS5003;42598;53.802;-1.632;2022-12-18T00:08:44;34;32;
48887;PMS5003;42598;53.802;-1.632;2022-12-18T00:11:12;36;34;
48887;PMS5003;42598;53.802;-1.632;2022-12-18T00:13:41;39;37;
48887;PMS5003;42598;53.802;-1.632;2022-12-18T00:16:09;37;35;
48887;PMS5003;42598;53.802;-1.632;2022-12-18T00:18:38;38;32;
48887;PMS5003;42598;53.802;-1.632;2022-12-18T00:21:07;33;32;
48887;PMS5003;42598;53.802;-1.632;2022-12-18T00:23:36;30;30;
48887;PMS5003;42598;53.802;-1.632;2022-12-18T00:26:06;37;34;
48887;PMS5003;42598;53.802;-1.632;2022-12-18T00:28:34;28;27;
48887;PMS5003;42598;53.802;-1.632;2022-12-18T00:31:01;32;32;
48887;PMS5003;42598;53.802;-1.632;2022-12-18T00:33:29;29;29;
48887;PMS5003;42598;53.802;-1.632;2022-12-18T00:36:00;33;33;
48887;PMS5003;42598;53.802;-1.632;2022-12-18T00:38:27;31;28;
48887;PMS5003;42598;53.802;-1.632;2022-12-18T00:40:54;32;31;
48887;PMS5003;42598;53.802;-1.632;2022-12-18T00:43:22;33;33;
48887;PMS5003;42598;53.802;-1.632;2022-12-18T00:45:49;34;32;
48887;PMS5003;42598;53.802;-1.632;2022-12-18T00:48:16;35;33;
48887;PMS5003;42598;53.802;-1.632;2022-12-18T00:50:43;35;34;
48887;PMS5003;42598;53.802;-1.632;2022-12-18T00:53:11;32;31;
48887;PMS5003;42598;53.802;-1.632;2022-12-18T00:55:39;45;41;
48887;PMS5003;42598;53.802;-1.632;2022-12-18T00:58:06;39;35;
48887;PMS5003;42598;53.802;-1.632;2022-12-18T01:00:34;42;38;
48887;PMS5003;42598;53.802;-1.632;2022-12-18T01:03:01;36;33;
48887;PMS5003;42598;53.802;-1.632;2022-12-18T01:05:29;41;40;
48887;PMS5003;42598;53.802;-1.632;2022-12-18T01:07:57;32;32;
48887;PMS5003;42598;53.802;-1.632;2022-12-18T01:10:25;35;34;
48887;PMS5003;42598;53.802;-1.632;2022-12-18T01:12:53;44;40;
48887;PMS5003;42598;53.802;-1.632;2022-12-18T01:15:20;37;34;
48887;PMS5003;42598;53.802;-1.632;2022-12-18T01:17:48;39;37;
48887;PMS5003;42598;53.802;-1.632;2022-12-18T01:20:18;42;36;
48887;PMS5003;42598;53.802;-1.632;2022-12-18T01:22:45;39;38;
48887;PMS5003;42598;53.802;-1.632;2022-12-18T01:25:12;36;33;
48887;PMS5003;42598;53.802;-1.632;2022-12-18T01:27:39;34;33;
48887;PMS5003;42598;53.802;-1.632;2022-12-18T01:30:07;37;33;
48887;PMS5003;42598;53.802;-1.632;2022-12-18T01:32:34;36;33;
48887;PMS5003;42598;53.802;-1.632;2022-12-18T01:35:02;40;36;
48887;PMS5003;42598;53.802;-1.632;2022-12-18T01:37:31;42;37;
48887;PMS5003;42598;53.802;-1.632;2022-12-18T01:39:58;38;33;
48887;PMS5003;42598;53.802;-1.632;2022-12-18T01:42:25;38;37;
48887;PMS5003;42598;53.802;-1.632;2022-12-18T01:44:54;43;40;
48887;PMS5003;42598;53.802;-1.632;2022-12-18T01:47:28;35;35;
48887;PMS5003;42598;53.802;-1.632;2022-12-18T01:50:02;39;38;
48887;PMS5003;42598;53.802;-1.632;2022-12-18T01:52:32;41;38;
48887;PMS5003;42598;53.802;-1.632;2022-12-18T01:55:02;37;34;
48887;PMS5003;42598;53.802;-1.632;2022-12-18T01:57:31;45;41;
48887;PMS5003;42598;53.802;-1.632;2022-12-18T01:59:59;36;32;
48887;PMS5003;42598;53.802;-1.632;2022-12-18T02:02:29;39;37;
48887;PMS5003;42598;53.802;-1.632;2022-12-18T02:04:57;42;38;
48887;PMS5003;42598;53.802;-1.632;2022-12-18T02:07:26;42;38;
48887;PMS5003;42598;53.802;-1.632;2022-12-18T02:10:04;42;38;
48887;PMS5003;42598;53.802;-1.632;2022-12-18T02:12:42;43;41;
48887;PMS5003;42598;53.802;-1.632;2022-12-18T02:15:16;48;44;
48887;PMS5003;42598;53.802;-1.632;2022-12-18T02:17:52;42;39;
48887;PMS5003;42598;53.802;-1.632;2022-12-18T02:20:27;37;36;
48887;PMS5003;42598;53.802;-1.632;2022-12-18T02:23:05;44;43;
48887;PMS5003;42598;53.802;-1.632;2022-12-18T02:25:40;49;45;
48887;PMS5003;42598;53.802;-1.632;2022-12-18T02:28:19;37;34;
48887;PMS5003;42598;53.802;-1.632;2022-12-18T02:30:50;37;35;
48887;PMS5003;42598;53.802;-1.632;2022-12-18T02:33:19;35;34;
48887;PMS5003;42598;53.802;-1.632;2022-12-18T02:35:47;44;39;
48887;PMS5003;42598;53.802;-1.632;2022-12-18T02:38:17;46;41;
48887;PMS5003;42598;53.802;-1.632;2022-12-18T02:40:44;40;40;
48887;PMS5003;42598;53.802;-1.632;2022-12-18T02:43:13;36;35;
48887;PMS5003;42598;53.802;-1.632;2022-12-18T02:45:46;37;36;
48887;PMS5003;42598;53.802;-1.632;2022-12-18T02:48:14;37;35;
48887;PMS5003;42598;53.802;-1.632;2022-12-18T02:50:44;38;37;
48887;PMS5003;42598;53.802;-1.632;2022-12-18T02:53:21;35;35;
48887;PMS5003;42598;53.802;-1.632;2022-12-18T02:55:56;41;38;
48887;PMS5003;42598;53.802;-1.632;2022-12-18T02:58:30;41;39;
48887;PMS5003;42598;53.802;-1.632;2022-12-18T03:01:06;41;37;
48887;PMS5003;42598;53.802;-1.632;2022-12-18T03:03:40;38;36;
48887;PMS5003;42598;53.802;-1.632;2022-12-18T03:06:14;37;35;
48887;PMS5003;42598;53.802;-1.632;2022-12-18T03:08:48;34;29;
48887;PMS5003;42598;53.802;-1.632;2022-12-18T03:11:20;38;36;
48887;PMS5003;42598;53.802;-1.632;2022-12-18T03:13:48;40;37;
48887;PMS5003;42598;53.802;-1.632;2022-12-18T03:16:22;41;37;
48887;PMS5003;42598;53.802;-1.632;2022-12-18T03:18:54;45;41;
48887;PMS5003;42598;53.802;-1.632;2022-12-18T03:21:26;35;34;
48887;PMS5003;42598;53.802;-1.632;2022-12-18T03:23:58;35;34;
48887;PMS5003;42598;53.802;-1.632;2022-12-18T03:26:34;42;39;
48887;PMS5003;42598;53.802;-1.632;2022-12-18T03:29:04;36;34;
48887;PMS5003;42598;53.802;-1.632;2022-12-18T03:31:35;45;42;
48887;PMS5003;42598;53.802;-1.632;2022-12-18T03:34:09;32;30;
48887;PMS5003;42598;53.802;-1.632;2022-12-18T03:36:40;38;34;
48887;PMS5003;42598;53.802;-1.632;2022-12-18T03:39:07;36;32;
48887;PMS5003;42598;53.802;-1.632;2022-12-18T03:41:37;35;34;
48887;PMS5003;42598;53.802;-1.632;2022-12-18T03:44:10;36;34;
48887;PMS5003;42598;53.802;-1.632;2022-12-18T03:46:41;39;37;
48887;PMS5003;42598;53.802;-1.632;2022-12-18T03:49:14;38;35;
48887;PMS5003;42598;53.802;-1.632;2022-12-18T03:51:49;50;46;
48887;PMS5003;42598;53.802;-1.632;2022-12-18T03:54:18;42;39;
48887;PMS5003;42598;53.802;-1.632;2022-12-18T03:56:46;34;34;
48887;PMS5003;42598;53.802;-1.632;2022-12-18T03:59:19;37;33;
48887;PMS5003;42598;53.802;-1.632;2022-12-18T04:01:47;36;36;
48887;PMS5003;42598;53.802;-1.632;2022-12-18T04:04:18;34;33;
48887;PMS5003;42598;53.802;-1.632;2022-12-18T04:06:48;39;38;
48887;PMS5003;42598;53.802;-1.632;2022-12-18T04:09:17;34;34;
48887;PMS5003;42598;53.802;-1.632;2022-12-18T04:11:46;38;35;
48887;PMS5003;42598;53.802;-1.632;2022-12-18T04:14:13;39;35;
48887;PMS5003;42598;53.802;-1.632;2022-12-18T04:16:40;34;33;
48887;PMS5003;42598;53.802;-1.632;2022-12-18T04:19:08;38;34;
48887;PMS5003;42598;53.802;-1.632;2022-12-18T04:21:35;34;34;
48887;PMS5003;42598;53.802;-1.632;2022-12-18T04:24:03;33;31;
48887;PMS5003;42598;53.802;-1.632;2022-12-18T04:26:30;39;34;
48887;PMS5003;42598;53.802;-1.632;2022-12-18T04:28:57;31;31;
48887;PMS5003;42598;53.802;-1.632;2022-12-18T04:31:24;34;29;
48887;PMS5003;42598;53.802;-1.632;2022-12-18T04:33:52;33;31;
48887;PMS5003;42598;53.802;-1.632;2022-12-18T04:36:19;33;32;
48887;PMS5003;42598;53.802;-1.632;2022-12-18T04:38:46;31;30;
48887;PMS5003;42598;53.802;-1.632;2022-12-18T04:41:14;40;37;
48887;PMS5003;42598;53.802;-1.632;2022-12-18T04:43:41;28;28;
48887;PMS5003;42598;53.802;-1.632;2022-12-18T04:46:08;33;29;
48887;PMS5003;42598;53.802;-1.632;2022-12-18T04:48:36;35;32;
48887;PMS5003;42598;53.802;-1.632;2022-12-18T04:51:04;27;27;
48887;PMS5003;42598;53.802;-1.632;2022-12-18T04:53:32;31;29;
48887;PMS5003;42598;53.802;-1.632;2022-12-18T04:56:03;28;28;
48887;PMS5003;42598;53.802;-1.632;2022-12-18T04:58:33;40;34;
48887;PMS5003;42598;53.802;-1.632;2022-12-18T05:01:00;32;31;
48887;PMS5003;42598;53.802;-1.632;2022-12-18T05:03:27;40;35;
48887;PMS5003;42598;53.802;-1.632;2022-12-18T05:05:54;28;27;
48887;PMS5003;42598;53.802;-1.632;2022-12-18T05:08:23;39;34;
48887;PMS5003;42598;53.802;-1.632;2022-12-18T05:10:49;33;29;
48887;PMS5003;42598;53.802;-1.632;2022-12-18T05:13:25;37;36;
48887;PMS5003;42598;53.802;-1.632;2022-12-18T05:15:53;39;38;
48887;PMS5003;42598;53.802;-1.632;2022-12-18T05:18:21;39;38;
48887;PMS5003;42598;53.802;-1.632;2022-12-18T05:20:49;50;41;
48887;PMS5003;42598;53.802;-1.632;2022-12-18T05:23:16;37;35;
48887;PMS5003;42598;53.802;-1.632;2022-12-18T05:25:46;43;39;
48887;PMS5003;42598;53.802;-1.632;2022-12-18T05:28:17;46;35;
48887;PMS5003;42598;53.802;-1.632;2022-12-18T05:30:47;32;32;
48887;PMS5003;42598;53.802;-1.632;2022-12-18T05:33:14;41;40;
48887;PMS5003;42598;53.802;-1.632;2022-12-18T05:35:42;48;43;
48887;PMS5003;42598;53.802;-1.632;2022-12-18T05:38:10;33;32;
48887;PMS5003;42598;53.802;-1.632;2022-12-18T05:40:36;44;40;
48887;PMS5003;42598;53.802;-1.632;2022-12-18T05:43:07;40;38;
48887;PMS5003;42598;53.802;-1.632;2022-12-18T05:45:36;47;39;
48887;PMS5003;42598;53.802;-1.632;2022-12-18T05:48:03;44;41;
48887;PMS5003;42598;53.802;-1.632;2022-12-18T05:50:33;47;42;
48887;PMS5003;42598;53.802;-1.632;2022-12-18T05:53:01;47;41;
48887;PMS5003;42598;53.802;-1.632;2022-12-18T05:55:29;39;38;
48887;PMS5003;42598;53.802;-1.632;2022-12-18T05:57:59;48;46;
48887;PMS5003;42598;53.802;-1.632;2022-12-18T06:00:27;45;44;
48887;PMS5003;42598;53.802;-1.632;2022-12-18T06:02:54;50;45;
48887;PMS5003;42598;53.802;-1.632;2022-12-18T06:05:22;40;40;
48887;PMS5003;42598;53.802;-1.632;2022-12-18T06:07:49;51;48;
48887;PMS5003;42598;53.802;-1.632;2022-12-18T06:10:17;41;40;
48887;PMS5003;42598;53.802;-1.632;2022-12-18T06:12:44;50;49;
48887;PMS5003;42598;53.802;-1.632;2022-12-18T06:15:14;46;44;
48887;PMS5003;42598;53.802;-1.632;2022-12-18T06:17:41;53;53;
48887;PMS5003;42598;53.802;-1.632;2022-12-18T06:20:09;55;47;
48887;PMS5003;42598;53.802;-1.632;2022-12-18T06:22:37;49;48;
48887;PMS5003;42598;53.802;-1.632;2022-12-18T06:25:05;47;46;
48887;PMS5003;42598;53.802;-1.632;2022-12-18T06:27:32;49;45;
48887;PMS5003;42598;53.802;-1.632;2022-12-18T06:29:59;46;46;
48887;PMS5003;42598;53.802;-1.632;2022-12-18T06:32:27;51;45;
48887;PMS5003;42598;53.802;-1.632;2022-12-18T06:34:54;56;51;
48887;PMS5003;42598;53.802;-1.632;2022-12-18T06:37:21;46;44;
48887;PMS5003;42598;53.802;-1.632;2022-12-18T06:39:48;57;53;
48887;PMS5003;42598;53.802;-1.632;2022-12-18T06:42:16;52;48;
48887;PMS5003;42598;53.802;-1.632;2022-12-18T06:44:43;51;46;
48887;PMS5003;42598;53.802;-1.632;2022-12-18T06:47:11;43;43;
48887;PMS5003;42598;53.802;-1.632;2022-12-18T06:49:37;47;45;
48887;PMS5003;42598;53.802;-1.632;2022-12-18T06:52:05;55;52;
48887;PMS5003;42598;53.802;-1.632;2022-12-18T06:54:32;51;45;
48887;PMS5003;42598;53.802;-1.632;2022-12-18T06:56:59;57;49;
48887;PMS5003;42598;53.802;-1.632;2022-12-18T06:59:26;48;44;
48887;PMS5003;42598;53.802;-1.632;2022-12-18T07:01:54;52;48;
48887;PMS5003;42598;53.802;-1.632;2022-12-18T07:04:21;47;44;
48887;PMS5003;42598;53.802;-1.632;2022-12-18T07:06:48;54;48;
48887;PMS5003;42598;53.802;-1.632;2022-12-18T07:09:15;53;49;
48887;PMS5003;42598;53.802;-1.632;2022-12-18T07:11:42;48;46;
48887;PMS5003;42598;53.802;-1.632;2022-12-18T07:14:09;58;52;
48887;PMS5003;42598;53.802;-1.632;2022-12-18T07:16:36;61;52;
48887;PMS5003;42598;53.802;-1.632;2022-12-18T07:19:03;52;47;
48887;PMS5003;42598;53.802;-1.632;2022-12-18T07:21:30;56;52;
48887;PMS5003;42598;53.802;-1.632;2022-12-18T07:23:58;54;53;
48887;PMS5003;42598;53.802;-1.632;2022-12-18T07:26:25;52;47;
48887;PMS5003;42598;53.802;-1.632;2022-12-18T07:28:54;57;52;
48887;PMS5003;42598;53.802;-1.632;2022-12-18T07:31:23;55;50;
48887;PMS5003;42598;53.802;-1.632;2022-12-18T07:33:51;55;53;
48887;PMS5003;42598;53.802;-1.632;2022-12-18T07:36:19;56;52;
48887;PMS5003;42598;53.802;-1.632;2022-12-18T07:38:47;59;52;
48887;PMS5003;42598;53.802;-1.632;2022-12-18T07:41:16;64;56;
48887;PMS5003;42598;53.802;-1.632;2022-12-18T07:43:43;73;64;
48887;PMS5003;42598;53.802;-1.632;2022-12-18T07:46:11;71;64;
48887;PMS5003;42598;53.802;-1.632;2022-12-18T07:48:39;69;59;
48887;PMS5003;42598;53.802;-1.632;2022-12-18T07:51:06;70;63;
48887;PMS5003;42598;53.802;-1.632;2022-12-18T07:53:34;67;62;
48887;PMS5003;42598;53.802;-1.632;2022-12-18T07:56:02;68;58;
48887;PMS5003;42598;53.802;-1.632;2022-12-18T07:58:32;71;62;
48887;PMS5003;42598;53.802;-1.632;2022-12-18T08:01:03;69;61;
48887;PMS5003;42598;53.802;-1.632;2022-12-18T08:03:31;70;61;
48887;PMS5003;42598;53.802;-1.632;2022-12-18T08:06:00;70;65;
48887;PMS5003;42598;53.802;-1.632;2022-12-18T08:08:29;72;65;
48887;PMS5003;42598;53.802;-1.632;2022-12-18T08:10:57;77;64;
48887;PMS5003;42598;53.802;-1.632;2022-12-18T08:13:25;80;69;
48887;PMS5003;42598;53.802;-1.632;2022-12-18T08:15:55;76;66;
48887;PMS5003;42598;53.802;-1.632;2022-12-18T08:18:24;74;70;
48887;PMS5003;42598;53.802;-1.632;2022-12-18T08:20:51;83;69;
48887;PMS5003;42598;53.802;-1.632;2022-12-18T08:23:18;79;70;
48887;PMS5003;42598;53.802;-1.632;2022-12-18T08:25:45;90;72;
48887;PMS5003;42598;53.802;-1.632;2022-12-18T08:28:16;85;75;
48887;PMS5003;42598;53.802;-1.632;2022-12-18T08:30:44;84;71;
48887;PMS5003;42598;53.802;-1.632;2022-12-18T08:33:11;88;76;
48887;PMS5003;42598;53.802;-1.632;2022-12-18T08:35:39;82;70;
48887;PMS5003;42598;53.802;-1.632;2022-12-18T08:38:07;78;66;
48887;PMS5003;42598;53.802;-1.632;2022-12-18T08:40:44;87;74;
48887;PMS5003;42598;53.802;-1.632;2022-12-18T08:43:12;77;70;
48887;PMS5003;42598;53.802;-1.632;2022-12-18T08:45:40;77;71;
48887;PMS5003;42598;53.802;-1.632;2022-12-18T08:48:06;93;76;
48887;PMS5003;42598;53.802;-1.632;2022-12-18T08:50:34;83;74;
48887;PMS5003;42598;53.802;-1.632;2022-12-18T08:53:01;77;66;
48887;PMS5003;42598;53.802;-1.632;2022-12-18T08:55:28;72;62;
48887;PMS5003;42598;53.802;-1.632;2022-12-18T08:57:55;72;65;
48887;PMS5003;42598;53.802;-1.632;2022-12-18T09:00:23;77;60;
48887;PMS5003;42598;53.802;-1.632;2022-12-18T09:02:50;77;70;
48887;PMS5003;42598;53.802;-1.632;2022-12-18T09:05:17;88;74;
48887;PMS5003;42598;53.802;-1.632;2022-12-18T09:07:44;73;62;
48887;PMS5003;42598;53.802;-1.632;2022-12-18T09:10:11;67;58;
48887;PMS5003;42598;53.802;-1.632;2022-12-18T09:12:39;72;63;
48887;PMS5003;42598;53.802;-1.632;2022-12-18T09:15:07;71;60;
48887;PMS5003;42598;53.802;-1.632;2022-12-18T09:17:34;75;65;
48887;PMS5003;42598;53.802;-1.632;2022-12-18T09:20:02;85;70;
48887;PMS5003;42598;53.802;-1.632;2022-12-18T09:22:29;77;66;
48887;PMS5003;42598;53.802;-1.632;2022-12-18T09:24:58;64;58;
48887;PMS5003;42598;53.802;-1.632;2022-12-18T09:27:25;74;67;
48887;PMS5003;42598;53.802;-1.632;2022-12-18T09:29:52;69;57;
48887;PMS5003;42598;53.802;-1.632;2022-12-18T09:32:19;63;56;
48887;PMS5003;42598;53.802;-1.632;2022-12-18T09:34:46;73;65;
48887;PMS5003;42598;53.802;-1.632;2022-12-18T09:37:13;84;71;
48887;PMS5003;42598;53.802;-1.632;2022-12-18T09:39:40;77;68;
48887;PMS5003;42598;53.802;-1.632;2022-12-18T09:42:09;71;60;
48887;PMS5003;42598;53.802;-1.632;2022-12-18T09:44:48;79;65;
48887;PMS5003;42598;53.802;-1.632;2022-12-18T09:47:18;76;65;
48887;PMS5003;42598;53.802;-1.632;2022-12-18T09:49:48;84;67;
48887;PMS5003;42598;53.802;-1.632;2022-12-18T09:52:20;68;59;
48887;PMS5003;42598;53.802;-1.632;2022-12-18T09:54:51;71;59;
48887;PMS5003;42598;53.802;-1.632;2022-12-18T09:57:23;72;61;
48887;PMS5003;42598;53.802;-1.632;2022-12-18T09:59:53;77;62;
48887;PMS5003;42598;53.802;-1.632;2022-12-18T10:02:24;77;66;
48887;PMS5003;42598;53.802;-1.632;2022-12-18T10:04:56;80;70;
48887;PMS5003;42598;53.802;-1.632;2022-12-18T10:07:36;76;72;
48887;PMS5003;42598;53.802;-1.632;2022-12-18T10:10:16;71;61;
48887;PMS5003;42598;53.802;-1.632;2022-12-18T10:12:53;67;62;
48887;PMS5003;42598;53.802;-1.632;2022-12-18T10:15:30;69;54;
48887;PMS5003;42598;53.802;-1.632;2022-12-18T10:18:04;62;61;
48887;PMS5003;42598;53.802;-1.632;2022-12-18T10:20:43;71;59;
48887;PMS5003;42598;53.802;-1.632;2022-12-18T10:23:14;73;61;
48887;PMS5003;42598;53.802;-1.632;2022-12-18T10:25:50;65;53;
48887;PMS5003;42598;53.802;-1.632;2022-12-18T10:28:22;65;62;
48887;PMS5003;42598;53.802;-1.632;2022-12-18T10:30:50;64;58;
48887;PMS5003;42598;53.802;-1.632;2022-12-18T10:33:19;70;60;
48887;PMS5003;42598;53.802;-1.632;2022-12-18T10:35:47;65;53;
48887;PMS5003;42598;53.802;-1.632;2022-12-18T10:38:21;62;53;
48887;PMS5003;42598;53.802;-1.632;2022-12-18T10:40:51;58;50;
48887;PMS5003;42598;53.802;-1.632;2022-12-18T10:43:21;70;58;
48887;PMS5003;42598;53.802;-1.632;2022-12-18T10:46:00;68;55;
48887;PMS5003;42598;53.802;-1.632;2022-12-18T10:48:39;64;58;
48887;PMS5003;42598;53.802;-1.632;2022-12-18T10:51:19;51;48;
48887;PMS5003;42598;53.802;-1.632;2022-12-18T10:53:51;49;47;
48887;PMS5003;42598;53.802;-1.632;2022-12-18T10:56:22;61;55;
48887;PMS5003;42598;53.802;-1.632;2022-12-18T10:58:57;57;48;
48887;PMS5003;42598;53.802;-1.632;2022-12-18T11:01:33;59;54;
48887;PMS5003;42598;53.802;-1.632;2022-12-18T11:05:22;53;45;
48887;PMS5003;42598;53.802;-1.632;2022-12-18T11:07:53;44;43;
48887;PMS5003;42598;53.802;-1.632;2022-12-18T11:10:21;60;54;
48887;PMS5003;42598;53.802;-1.632;2022-12-18T11:12:52;57;51;
48887;PMS5003;42598;53.802;-1.632;2022-12-18T11:15:20;49;46;
48887;PMS5003;42598;53.802;-1.632;2022-12-18T11:17:53;60;52;
48887;PMS5003;42598;53.802;-1.632;2022-12-18T11:20:22;67;54;
48887;PMS5003;42598;53.802;-1.632;2022-12-18T11:22:54;52;46;
48887;PMS5003;42598;53.802;-1.632;2022-12-18T11:25:24;53;47;
48887;PMS5003;42598;53.802;-1.632;2022-12-18T11:27:52;60;53;
48887;PMS5003;42598;53.802;-1.632;2022-12-18T11:30:23;54;43;
48887;PMS5003;42598;53.802;-1.632;2022-12-18T11:32:53;42;42;
48887;PMS5003;42598;53.802;-1.632;2022-12-18T11:35:27;50;43;
48887;PMS5003;42598;53.802;-1.632;2022-12-18T11:38:04;54;51;
48887;PMS5003;42598;53.802;-1.632;2022-12-18T11:40:40;49;46;
48887;PMS5003;42598;53.802;-1.632;2022-12-18T11:43:12;49;48;
48887;PMS5003;42598;53.802;-1.632;2022-12-18T11:45:45;54;46;
48887;PMS5003;42598;53.802;-1.632;2022-12-18T11:48:18;48;45;
48887;PMS5003;42598;53.802;-1.632;2022-12-18T11:50:51;58;53;
48887;PMS5003;42598;53.802;-1.632;2022-12-18T11:53:20;50;45;
48887;PMS5003;42598;53.802;-1.632;2022-12-18T11:55:50;59;50;
48887;PMS5003;42598;53.802;-1.632;2022-12-18T11:58:31;59;56;
48887;PMS5003;42598;53.802;-1.632;2022-12-18T12:01:15;62;52;
48887;PMS5003;42598;53.802;-1.632;2022-12-18T12:03:59;49;43;
48887;PMS5003;42598;53.802;-1.632;2022-12-18T12:06:45;60;51;
48887;PMS5003;42598;53.802;-1.632;2022-12-18T12:09:21;50;43;
48887;PMS5003;42598;53.802;-1.632;2022-12-18T12:11:58;58;52;
48887;PMS5003;42598;53.802;-1.632;2022-12-18T12:14:42;57;49;
48887;PMS5003;42598;53.802;-1.632;2022-12-18T12:17:19;60;53;
48887;PMS5003;42598;53.802;-1.632;2022-12-18T12:19:53;48;43;
48887;PMS5003;42598;53.802;-1.632;2022-12-18T12:22:31;58;51;
48887;PMS5003;42598;53.802;-1.632;2022-12-18T12:25:07;55;49;
48887;PMS5003;42598;53.802;-1.632;2022-12-18T12:27:46;57;51;
48887;PMS5003;42598;53.802;-1.632;2022-12-18T12:30:29;53;49;
48887;PMS5003;42598;53.802;-1.632;2022-12-18T12:33:20;55;51;
48887;PMS5003;42598;53.802;-1.632;2022-12-18T12:36:00;54;49;
48887;PMS5003;42598;53.802;-1.632;2022-12-18T12:38:37;63;54;
48887;PMS5003;42598;53.802;-1.632;2022-12-18T12:41:09;69;56;
48887;PMS5003;42598;53.802;-1.632;2022-12-18T12:43:42;55;49;
48887;PMS5003;42598;53.802;-1.632;2022-12-18T12:46:13;68;61;
48887;PMS5003;42598;53.802;-1.632;2022-12-18T12:48:44;57;50;
48887;PMS5003;42598;53.802;-1.632;2022-12-18T12:51:16;57;51;
48887;PMS5003;42598;53.802;-1.632;2022-12-18T12:53:46;53;47;
48887;PMS5003;42598;53.802;-1.632;2022-12-18T12:56:14;55;51;
48887;PMS5003;42598;53.802;-1.632;2022-12-18T12:58:46;55;51;
48887;PMS5003;42598;53.802;-1.632;2022-12-18T13:01:25;60;54;
48887;PMS5003;42598;53.802;-1.632;2022-12-18T13:04:02;61;53;
48887;PMS5003;42598;53.802;-1.632;2022-12-18T13:06:39;60;53;
48887;PMS5003;42598;53.802;-1.632;2022-12-18T13:09:13;54;45;
48887;PMS5003;42598;53.802;-1.632;2022-12-18T13:11:41;55;51;
48887;PMS5003;42598;53.802;-1.632;2022-12-18T13:14:19;53;51;
48887;PMS5003;42598;53.802;-1.632;2022-12-18T13:16:48;52;47;
48887;PMS5003;42598;53.802;-1.632;2022-12-18T13:19:20;63;55;
48887;PMS5003;42598;53.802;-1.632;2022-12-18T13:21:52;53;51;
48887;PMS5003;42598;53.802;-1.632;2022-12-18T13:24:23;59;57;
48887;PMS5003;42598;53.802;-1.632;2022-12-18T13:26:53;64;60;
48887;PMS5003;42598;53.802;-1.632;2022-12-18T13:29:40;58;53;
48887;PMS5003;42598;53.802;-1.632;2022-12-18T13:32:19;64;50;
48887;PMS5003;42598;53.802;-1.632;2022-12-18T13:34:48;51;48;
48887;PMS5003;42598;53.802;-1.632;2022-12-18T13:38:16;63;55;
48887;PMS5003;42598;53.802;-1.632;2022-12-18T13:40:53;55;50;
48887;PMS5003;42598;53.802;-1.632;2022-12-18T13:43:23;51;47;
48887;PMS5003;42598;53.802;-1.632;2022-12-18T13:46:00;51;49;
48887;PMS5003;42598;53.802;-1.632;2022-12-18T13:48:31;57;52;
48887;PMS5003;42598;53.802;-1.632;2022-12-18T13:51:01;57;51;
48887;PMS5003;42598;53.802;-1.632;2022-12-18T13:53:33;63;56;
48887;PMS5003;42598;53.802;-1.632;2022-12-18T13:56:04;71;63;
48887;PMS5003;42598;53.802;-1.632;2022-12-18T13:58:32;67;53;
48887;PMS5003;42598;53.802;-1.632;2022-12-18T14:01:41;57;50;
48887;PMS5003;42598;53.802;-1.632;2022-12-18T14:04:11;63;54;
48887;PMS5003;42598;53.802;-1.632;2022-12-18T14:06:44;57;50;
48887;PMS5003;42598;53.802;-1.632;2022-12-18T14:09:13;56;49;
48887;PMS5003;42598;53.802;-1.632;2022-12-18T14:11:46;63;55;
48887;PMS5003;42598;53.802;-1.632;2022-12-18T14:14:13;56;52;
48887;PMS5003;42598;53.802;-1.632;2022-12-18T14:16:43;59;55;
48887;PMS5003;42598;53.802;-1.632;2022-12-18T14:19:12;52;51;
48887;PMS5003;42598;53.802;-1.632;2022-12-18T14:21:44;53;50;
48887;PMS5003;42598;53.802;-1.632;2022-12-18T14:24:14;50;48;
48887;PMS5003;42598;53.802;-1.632;2022-12-18T14:26:43;56;50;
48887;PMS5003;42598;53.802;-1.632;2022-12-18T14:29:19;52;49;
48887;PMS5003;42598;53.802;-1.632;2022-12-18T14:32:05;55;48;
48887;PMS5003;42598;53.802;-1.632;2022-12-18T14:34:35;52;50;
48887;PMS5003;42598;53.802;-1.632;2022-12-18T14:37:03;56;51;
48887;PMS5003;42598;53.802;-1.632;2022-12-18T14:39:31;61;55;
48887;PMS5003;42598;53.802;-1.632;2022-12-18T14:41:57;63;52;
48887;PMS5003;42598;53.802;-1.632;2022-12-18T14:44:24;58;51;
48887;PMS5003;42598;53.802;-1.632;2022-12-18T14:46:51;55;50;
48887;PMS5003;42598;53.802;-1.632;2022-12-18T14:49:19;57;56;
48887;PMS5003;42598;53.802;-1.632;2022-12-18T14:51:52;63;58;
48887;PMS5003;42598;53.802;-1.632;2022-12-18T14:54:21;57;53;
48887;PMS5003;42598;53.802;-1.632;2022-12-18T14:56:50;62;56;
48887;PMS5003;42598;53.802;-1.632;2022-12-18T14:59:22;59;51;
48887;PMS5003;42598;53.802;-1.632;2022-12-18T15:01:56;54;49;
48887;PMS5003;42598;53.802;-1.632;2022-12-18T15:04:26;64;57;
48887;PMS5003;42598;53.802;-1.632;2022-12-18T15:07:05;61;50;
48887;PMS5003;42598;53.802;-1.632;2022-12-18T15:09:38;58;53;
48887;PMS5003;42598;53.802;-1.632;2022-12-18T15:12:16;57;50;
48887;PMS5003;42598;53.802;-1.632;2022-12-18T15:14:52;52;49;
48887;PMS5003;42598;53.802;-1.632;2022-12-18T15:17:20;62;56;
48887;PMS5003;42598;53.802;-1.632;2022-12-18T15:19:50;51;49;
48887;PMS5003;42598;53.802;-1.632;2022-12-18T15:22:23;58;56;
48887;PMS5003;42598;53.802;-1.632;2022-12-18T15:24:53;55;52;
48887;PMS5003;42598;53.802;-1.632;2022-12-18T15:27:22;57;49;
48887;PMS5003;42598;53.802;-1.632;2022-12-18T15:30:00;49;46;
48887;PMS5003;42598;53.802;-1.632;2022-12-18T15:32:42;49;47;
48887;PMS5003;42598;53.802;-1.632;2022-12-18T15:35:13;58;55;
48887;PMS5003;42598;53.802;-1.632;2022-12-18T15:37:42;64;56;
48887;PMS5003;42598;53.802;-1.632;2022-12-18T15:40:12;55;52;
48887;PMS5003;42598;53.802;-1.632;2022-12-18T15:42:41;67;59;
48887;PMS5003;42598;53.802;-1.632;2022-12-18T15:45:11;51;49;
48887;PMS5003;42598;53.802;-1.632;2022-12-18T15:47:39;51;48;
48887;PMS5003;42598;53.802;-1.632;2022-12-18T15:50:07;59;53;
48887;PMS5003;42598;53.802;-1.632;2022-12-18T15:52:37;61;52;
48887;PMS5003;42598;53.802;-1.632;2022-12-18T15:55:09;56;55;
48887;PMS5003;42598;53.802;-1.632;2022-12-18T15:57:39;63;56;
48887;PMS5003;42598;53.802;-1.632;2022-12-18T16:00:08;61;53;
48887;PMS5003;42598;53.802;-1.632;2022-12-18T16:02:39;60;51;
48887;PMS5003;42598;53.802;-1.632;2022-12-18T16:05:09;58;55;
48887;PMS5003;42598;53.802;-1.632;2022-12-18T16:07:41;61;55;
48887;PMS5003;42598;53.802;-1.632;2022-12-18T16:10:08;60;56;
48887;PMS5003;42598;53.802;-1.632;2022-12-18T16:12:36;68;60;
48887;PMS5003;42598;53.802;-1.632;2022-12-18T16:15:04;60;53;
48887;PMS5003;42598;53.802;-1.632;2022-12-18T16:17:32;56;52;
48887;PMS5003;42598;53.802;-1.632;2022-12-18T16:20:00;55;52;
48887;PMS5003;42598;53.802;-1.632;2022-12-18T16:22:28;56;53;
48887;PMS5003;42598;53.802;-1.632;2022-12-18T16:24:56;48;45;